< < Back
Terminal Aerodrome Forecast


Current Version              Previous Versions:   1  2  3  4  5  6  7  8  9  

Terminal Aerodrome Forecast

105
FTUS44 KMRX 291301 AAA
TAFCHA
TAF AMD
KCHA 291301Z 2913/3012 00000KT 4SM BR SCT002
     FM291330 25003KT P6SM SCT250=

Latest METAR

111
SAUS80 KWBC 291400 RRB
MTRCHA
METAR KCHA 291353Z 36003KT 10SM SCT014 SCT060 26/22 A3018 RMK AO2 SLP211
T02610217


USA.gov is the U.S. government's official web portal to all federal, state and local government web resources and services.